Statewide Weather Sensors

Route Weather Station Name Milepost Date / Time Surface Status Surface Temp Precip Intensity Wind Avg Wind Gust Dir Dewpoint Humidity Air Temp Visibility
I 25 Wyo Hill 3.52 Apr 16, 2024, 10:18 AM     None None 36 mph 50 mph NW 33.8°F 58% 48.2°F > 1/2 mi
I 25 Whitaker 28.1 Apr 16, 2024, 10:18 AM N/A   None None 36 mph 44 mph NW 35.6°F 64% 48.2°F > 1/2 mi
I 25 Bear Creek 46.77 Apr 16, 2024, 10:18 AM Wet 50.2°F None None 22 mph 30 mph NW 37.4°F 65% 48.2°F > 1/2 mi
I 25 Bordeaux 70.8 Apr 16, 2024, 10:18 AM Wet 49.8°F None None 29 mph 45 mph NW 37.4°F 60% 50.0°F > 1/2 mi
I 25 Coleman 98.7 Apr 16, 2024, 10:18 AM Trace Moisture 47.8°F Light Slight 29 mph 39 mph NW 37.4°F 69% 48.2°F > 1/2 mi
I 25 Platte/Converse County Line 119.9 Apr 16, 2024, 10:18 AM     None None 22 mph 40 mph NW 33.8°F 53% 50.0°F > 1/2 mi
I 25 Deer Creek 164.2 Apr 16, 2024, 10:18 AM Dry 54.3°F None None 25 mph 37 mph N 32.0°F 56% 48.2°F > 1/2 mi
I 25 Hat Six 181.67 Apr 16, 2024, 10:18 AM Dry 50.0°F None None 7 mph 11 mph N 37.4°F 66% 48.2°F > 1/2 mi
I 25 F Street Hill 189.51 Apr 16, 2024, 10:18 AM Dry 52.9°F None None 4 mph 6 mph W 39.2°F 66% 50.0°F > 1/2 mi
I 25 Twenty Mile Hill 207.2 Apr 16, 2024, 10:18 AM N/A   None None 12 mph 19 mph NW 35.6°F 61% 48.2°F > 1/2 mi
I 25 Smokey Gap 228.58 Apr 16, 2024, 10:18 AM Dry 55.0°F None None 11 mph 17 mph NW 33.8°F 53% 50.0°F > 1/2 mi
I 25 Tisdale 238.87 Feb 21, 2024, 11:42 PM                      
I 25 I-25 Divide 267.3 Apr 16, 2024, 10:18 AM N/A   None None 23 mph 30 mph N   NaN%   > 1/2 mi
I 80 Evanston POE 0.06 Apr 16, 2024, 10:18 AM     None None 18 mph 22 mph SW 28.4°F 57% 42.8°F > 1/2 mi
I 80 Evanston 4.2 Apr 16, 2024, 10:18 AM N/A   None None 14 mph 20 mph SW 30.2°F 58% 44.6°F > 1/2 mi
I 80 Bear River Drive 6.94 Apr 16, 2024, 10:18 AM Dry 52.2°F None None 14 mph 20 mph SW 30.2°F 59% 42.8°F > 1/2 mi
I 80 Painter 10.16 Apr 16, 2024, 10:18 AM Dry 52.9°F None 19 mph 23 mph W   NaN%    
I 80 First Divide 13.86 Apr 16, 2024, 10:18 AM Dry 58.8°F None None 24 mph 30 mph W 28.4°F 67% 39.2°F > 1/2 mi
I 80 US 189 Interchange 17.66 Apr 16, 2024, 10:18 AM Dry 57.2°F None None 17 mph 27 mph SW 28.4°F 57% 42.8°F > 1/2 mi
I 80 Coal Road 20.95 Apr 16, 2024, 10:18 AM Dry 59.7°F None None 18 mph 26 mph W 28.4°F 61% 41.0°F > 1/2 mi
I 80 Leroy 23.35 Apr 16, 2024, 10:18 AM Dry 55.8°F None None 17 mph 21 mph SW 30.2°F 60% 42.8°F > 1/2 mi
I 80 French 27.6 Apr 16, 2024, 10:18 AM Dry 53.2°F None None 18 mph 27 mph W 28.4°F 64% 41.0°F > 1/2 mi
I 80 Church Butte 52.65 Apr 16, 2024, 10:18 AM Dry 58.8°F None None 16 mph 27 mph SW 30.2°F 60% 42.8°F > 1/2 mi
I 80 Peru Hill 82.31 Apr 16, 2024, 10:18 AM Dry 69.4°F None None 18 mph 29 mph W 32.0°F 52% 48.2°F > 1/2 mi
I 80 Green River Tunnel 90.5 Apr 16, 2024, 10:18 AM Dry 63.5°F None None 22 mph 30 mph W 32.0°F 54% 48.2°F > 1/2 mi
I 80 Rock Springs West 97.9 Apr 16, 2024, 10:18 AM N/A   None None 25 mph 33 mph W 32.0°F 52% 48.2°F > 1/2 mi
I 80 Baxter Road 111.5 Apr 16, 2024, 10:18 AM Dry 57.9°F None None 17 mph 27 mph W -5.8°F 48% 10.4°F > 1/2 mi
I 80 Mile Marker 124.5 124.5 Apr 16, 2024, 10:18 AM Dry 73.8°F None None 14 mph 24 mph W 33.8°F 53% 50.0°F > 1/2 mi
I 80 Point of Rocks 129.8 Apr 16, 2024, 10:18 AM Dry 71.8°F None None 16 mph 24 mph SW 33.8°F 57% 50.0°F > 1/2 mi
I 80 Black Butte 134.91 Apr 16, 2024, 10:18 AM Dry 54.0°F None None 14 mph 24 mph W 33.8°F 58% 48.2°F > 1/2 mi
I 80 Bitter Creek 141.83 Apr 16, 2024, 10:18 AM Dry 51.1°F None None 22 mph 30 mph W 32.0°F 62% 42.8°F > 1/2 mi
I 80 Tipton 156.72 Apr 16, 2024, 10:18 AM Trace Moisture 67.5°F None None 0 mph 0 mph W 33.8°F 60% 48.2°F > 1/2 mi
I 80 Continental Divide 184.3 Apr 16, 2024, 10:18 AM Trace Moisture 61.3°F None None 15 mph 21 mph W 35.6°F 67% 44.6°F > 1/2 mi
I 80 Sinclair 221.7 Apr 16, 2024, 10:18 AM Wet 58.6°F None None 19 mph 27 mph W 33.8°F 60% 48.2°F > 1/2 mi
I 80 Walcott Junction 234.66 Apr 16, 2024, 10:18 AM Dry 54.5°F None None 20 mph 26 mph NW 33.8°F 68% 44.6°F > 1/2 mi
I 80 Dana Ridge 244.8 Apr 16, 2024, 10:18 AM Dry 48.9°F None None 17 mph 24 mph W 35.6°F 80% 41.0°F > 1/2 mi
I 80 Mile Marker 249.1 249.1 Apr 16, 2024, 10:18 AM Trace Moisture 44.6°F None None 19 mph 24 mph N 35.6°F 80% 41.0°F > 1/2 mi
I 80 Halleck Ridge 252.16 Apr 16, 2024, 10:18 AM Dry 45.0°F None None 29 mph 39 mph W 33.8°F 82% 39.2°F > 1/2 mi
I 80 Elk Mountain 256.17 Apr 16, 2024, 10:18 AM Dry 46.6°F None None 22 mph 32 mph W 35.6°F 78% 42.8°F > 1/2 mi
I 80 County Road 402 262 Apr 16, 2024, 10:18 AM N/A   None None 21 mph 33 mph SW 35.6°F 80% 41.0°F > 1/2 mi
I 80 Wagonhound 266.58 Apr 16, 2024, 10:18 AM Trace Moisture 46.0°F None None 26 mph 29 mph W 33.8°F 79% 39.2°F > 1/2 mi
I 80 Foote Creek 269.5 Apr 16, 2024, 10:18 AM Trace Moisture 41.9°F None None 30 mph 42 mph W 33.8°F 80% 39.2°F > 1/2 mi
I 80 Arlington 271.8 Apr 16, 2024, 10:18 AM Trace Moisture 39.7°F None None 27 mph 35 mph W 32.0°F 78% 39.2°F > 1/2 mi
I 80 Arlington East 273.85 Apr 16, 2024, 10:18 AM Trace Moisture 39.7°F None None 25 mph 37 mph W 32.0°F 76% 39.2°F > 1/2 mi
I 80 Cooper Cove 279.36 Apr 16, 2024, 10:18 AM Trace Moisture 41.5°F None None 30 mph 40 mph SW 33.8°F 79% 39.2°F > 1/2 mi
I 80 Strouss Hill 283.75 Apr 16, 2024, 10:18 AM N/A   None None 33 mph 41 mph NW 32.0°F 75% 39.2°F > 1/2 mi
I 80 Quealy Dome 289.5 Apr 16, 2024, 10:18 AM Trace Moisture 45.1°F None None 20 mph 34 mph W 33.8°F 73% 41.0°F > 1/2 mi
I 80 Herrick Lane 297.66 Apr 16, 2024, 10:18 AM Dry 48.0°F None None 28 mph 39 mph SW 33.8°F 68% 42.8°F > 1/2 mi
I 80 Summit East 325.8 Apr 16, 2024, 10:18 AM Wet 39.2°F None None 34 mph 50 mph W 30.2°F 86% 33.8°F > 1/2 mi
I 80 Vedauwoo 329.4 Apr 16, 2024, 10:18 AM Trace Moisture 41.0°F None None 40 mph 58 mph W 32.0°F 82% 35.6°F > 1/2 mi
I 80 Lone Tree 333.32 Apr 16, 2024, 10:18 AM Trace Moisture 41.5°F Light None 34 mph 42 mph NW 32.0°F 80% 37.4°F > 1/2 mi
I 80 Buford East 336.1 Apr 16, 2024, 10:18 AM Trace Moisture 44.2°F Light Slight 28 mph 39 mph W 33.8°F 81% 39.2°F > 1/2 mi
I 80 Remount Road 340.5 Apr 16, 2024, 10:18 AM Dry 48.9°F None None 28 mph 45 mph W 35.6°F 80% 41.0°F > 1/2 mi
I 80 Otto 347.69 Apr 16, 2024, 10:18 AM Dry 55.8°F None None 40 mph 48 mph NW 35.6°F 68% 44.6°F > 1/2 mi
I 80 MP 353 353 Apr 16, 2024, 10:18 AM Dry 60.6°F None None 39 mph 45 mph NW 33.8°F 62% 46.4°F > 1/2 mi
I 80 Cheyenne East 373 Apr 16, 2024, 10:18 AM Dry 50.4°F None None 22 mph 37 mph NW 37.4°F 62% 48.2°F > 1/2 mi
I 90 Montana State Line 0.1 Apr 16, 2024, 10:18 AM Trace Moisture 70.0°F None None 26 mph 36 mph NW 26.6°F 39% 51.8°F > 1/2 mi
I 90 Pompey Creek 35.3 Apr 16, 2024, 10:18 AM Dry 67.8°F None None 31 mph 42 mph NW 23.0°F 31% 51.8°F > 1/2 mi
I 90 Sheridan/Johnson County Line 41.33 Jan 29, 2023, 07:04 PM                      
I 90 Piney Creek Interchange 44.7 Apr 16, 2024, 10:18 AM Dry 64.4°F None 29 mph 42 mph NW 24.8°F 37% 50.0°F  
I 90 Kearny Divide 45.33 Aug 25, 2023, 12:02 PM                      
I 90 Indian Creek Road 83.3 Apr 16, 2024, 10:18 AM Dry 70.5°F None None 40 mph 50 mph N 26.6°F 39% 51.8°F > 1/2 mi
I 90 Dead Horse 91.5 Apr 16, 2024, 10:18 AM Dry 57.7°F None None 12 mph 19 mph SW 24.8°F 30% 53.6°F > 1/2 mi
I 90 Mile Marker 108 108 Apr 16, 2024, 10:18 AM Dry 69.3°F None None 30 mph 38 mph NW 30.2°F 47% 48.2°F > 1/2 mi
I 90 Inyan Kara 170.5 Apr 16, 2024, 10:18 AM Dry 53.8°F None 23 mph 38 mph NW 35.6°F 62% 48.2°F  
I 90 Beulah 205.9 Apr 16, 2024, 10:18 AM Dry 51.4°F None None 13 mph 22 mph NW 42.8°F 77% 50.0°F > 1/2 mi
US 14 Ucross 27.83 Dec 12, 2023, 09:38 AM                      
US 14 Granite Pass 38.95 Apr 16, 2024, 10:18 AM N/A   None 9 mph 13 mph S 26.6°F 71% 35.6°F < 1/4 mi
US 14 Sunny Divide 185.89 Apr 16, 2024, 10:18 AM Dry 47.8°F None None 17 mph 27 mph N 32.0°F 59% 44.6°F > 1/2 mi
US 16 Big Horn County Line 44.01 Apr 16, 2024, 10:18 AM Dry 55.2°F None NaN mph NaN mph N   NaN%    
US 191 Farson 40.45 Apr 16, 2024, 10:18 AM Wet 43.3°F None 1 mph 1 mph NW 26.6°F 37% 51.8°F  
US 191 Warren Bridge 119.9 Apr 16, 2024, 10:18 AM N/A   None None 15 mph 23 mph W 28.4°F 57% 42.8°F > 1/2 mi
US 20 Natrona 30 Apr 16, 2024, 10:18 AM N/A   None None 22 mph 30 mph NW 30.2°F 41% 53.6°F > 1/2 mi
US 20 Hiland 57.4 Apr 16, 2024, 10:18 AM Dry 64.2°F None None 28 mph 35 mph NW 26.6°F 41% 50.0°F > 1/2 mi
US 20 Van Tassell 57.85 Apr 16, 2024, 10:18 AM N/A 50.2°F None None 31 mph 45 mph N 39.2°F 72% 48.2°F > 1/2 mi
US 26 Wind River Lake 26.05 Apr 16, 2024, 10:18 AM Wet 41.9°F None None 14 mph 22 mph N 24.8°F 91% 28.4°F > 1/2 mi
US 287 Pumpkin Vine 420.4 Apr 16, 2024, 10:18 AM Dry 50.9°F None None 42 mph 56 mph N 32.0°F 70% 39.2°F > 1/2 mi
US 30 Sage Junction 34 Apr 16, 2024, 10:18 AM Dry 54.7°F None None 16 mph 21 mph W 32.0°F 59% 44.6°F > 1/2 mi
US 30 Nugget Canyon 39.7 Apr 16, 2024, 10:18 AM Dry 50.2°F None None 10 mph 22 mph NW 30.2°F 59% 42.8°F > 1/2 mi
US 85 Gun Barrel 46.8 Apr 16, 2024, 10:18 AM Dry 48.2°F None None 34 mph 48 mph NW 39.2°F 73% 46.4°F > 1/2 mi
US 85 Four Corners 247.2 Apr 15, 2024, 06:00 PM                      
WY 120 Meeteetse 61.5 Apr 16, 2024, 10:18 AM Dry   None 16 mph 21 mph NE -4.0°F 9% 51.8°F > 1/2 mi
WY 210 Wildcat Trail 21.52 Apr 16, 2024, 10:18 AM Trace Moisture 48.7°F Light None 30 mph 40 mph N 35.6°F 85% 39.2°F > 1/2 mi
WY 210 Hynds Lodge Road 24.55 Apr 16, 2024, 10:18 AM N/A   Light None 15 mph 29 mph NW 35.6°F 88% 39.2°F > 1/2 mi
WY 22 Teton Pass 11.2 Feb 8, 2024, 11:10 AM                      
WY 220 Pathfinder Hill 80.1 Apr 16, 2024, 10:18 AM Dry 58.3°F None 20 mph 34 mph NW 30.2°F 44% 50.0°F  
WY 230 Skyline 230 113.2 Apr 16, 2024, 10:18 AM N/A   None None 27 mph 37 mph NW 33.8°F 83% 37.4°F > 1/2 mi
WY 258 Outer Drive 13.77 Apr 16, 2024, 10:18 AM Dry 63.3°F None None 5 mph 8 mph N 37.4°F 65% 48.2°F > 1/2 mi
WY 28 New South Pass 41.4 Apr 16, 2024, 10:18 AM Dry 66.7°F None None 12 mph 17 mph W 30.2°F 60% 42.8°F > 1/2 mi
WY 28 Lower Red Canyon 59.71 Apr 16, 2024, 10:18 AM Dry 63.5°F None None 5 mph 10 mph SE 32.0°F 51% 50.0°F > 1/2 mi
WY 296 Chief Joseph 32.96 Apr 16, 2024, 10:18 AM N/A   None None 28 mph 39 mph NW 24.8°F 59% 37.4°F > 1/2 mi
WY 372 Shute Creek 34 Apr 16, 2024, 10:18 AM N/A   None None 19 mph 25 mph W   NaN% 48.2°F > 1/2 mi
WY 387 Pine Tree Junction 131.79 Apr 16, 2024, 10:18 AM Dry 56.7°F None None 30 mph 43 mph N 28.4°F 45% 48.2°F > 1/2 mi
WY 487 Shirley Rim 37 Apr 16, 2024, 10:18 AM Dry 53.1°F None None 20 mph 25 mph NW 35.6°F 83% 39.2°F > 1/2 mi
WY 59 Belle Fourche 87 Apr 16, 2024, 10:18 AM Dry 56.3°F None 29 mph 39 mph NW 30.2°F 46% 50.0°F  
WY 789 Beaver Rim 48.1 Apr 16, 2024, 10:18 AM     None None 7 mph 11 mph NW -4.0°F 9% 50.0°F > 1/2 mi